Aérodrome :
LOGIN :

S'inscrire | Disclaimer

   EN    FR    IT 

 










Légende :    VFR   VFR Marginal   IFR   IFR Intensif   IFR Très Intensif
Visi : 
Plafond : 
>= 8 km
>= 3000ft
5 à 8 km
1000 à 3000 ft
1500m à 5 km
500 à 1000 ft
800 à 1500m
200 à 500 ft
< 800m
< 200 ft
Symboles :   Orages  Brouillard  Fortes neiges  Fortes précipitations  Vent > 20 kt
SIGMETs :   Divers  Orages  Givrage  Turbulence  Onde Orograph.  Cendres Volcan.






- Altitude de l'aérodrome : 231 ft
- Code IATA : WTN


EGXW - RAF Waddington

DERNIER METAR :
  • 230150Z AUTO 26004KT 9999 NCD 15/12 Q1013

METARs EXPIRÉS :
  • 230120Z AUTO 25004KT 9999 NCD 15/12 Q1013
  • 230050Z AUTO 25005KT 9999 FEW035/// SCT210/// 16/12 Q1013
  • 230020Z AUTO 23004KT 9999 OVC031/// 16/12 Q1013
  • 222350Z AUTO 24005KT 9999 OVC032/// 16/12 Q1013
  • 222320Z AUTO 25005KT 9999 FEW041/// OVC053/// 17/12 Q1013
  • 222250Z AUTO 24006KT 9999 FEW033/// SCT052/// 17/12 Q1013
  • 222220Z AUTO 22006KT 9999 OVC031/// 18/12 Q1013
  • 222150Z AUTO 24005KT 9999 OVC033/// 18/12 Q1013
  • 222120Z AUTO 25004KT 9999 OVC034/// 19/12 Q1013

TAF TAF EGXW
Valide du 22 à 18h jusqu'au 23 à 12h UTC


221622Z 2218/2312 25010KT 9999 SCT040
PROB30
TEMPO 2304/2309 BKN010
TEMPO 2309/2311 SCT018



MET'MAP, la Météo Aéronautique d'un coup d'oeil ! - Copyright ORBIFLY Décembre 2007 - Disclaimer

ORBIFLY MET'MAP TEAM :

Programmation & Développement : Alexandra Zaïnal
Sur une idée originale de : Baudouin d'Aumeries
Soutien technique & logistique : Manuel Goepfert
Assistance : Marc-Olivier Méhu




SOURCES & CREDITS :

   NOAA